Augusto C. Sandino (Managua) International Airport
MNMG : now visible

Airfield :











YOU CAN JOIN US ON...

 
LOGIN :

Register | Disclaimer

   EN    FR    IT 

 









Legend :    VFR   Marginal VFR   IFR   Intensive IFR   Very Intensive IFR
Visi :
Ceiling :
>= 8 km
>= 3000ft
5 to 8 km
1000 to 3000 ft
1500m to 5 km
500 to 1000 ft
800 to 1500m
200 to 500 ft
< 800m
< 200 ft
Symbols :   Thunderstorms  Fog  Heavy snow  Heavy precipitations  Wind > 20 kt







- Airport Elevation : 194 ft
- IATA code : MGA


MNMG - Augusto C. Sandino (Managua) International

CURRENT METAR :
  • 251000Z 13004KT 9999 FEW024 24/22 Q1009 A2982 NOSIG

TAF COR TAF MNMG
Valid from the 25 at 06:00 until the 26 at 06:00 UTC


250307Z 2506/2606 13006KT 9999 FEW024
TEMPO 2512/2515 09008KT FEW021 SCT080
TEMPO 2517/2523 07014KT 9000 DZ/-TSRA FEW021CB SCT022
No reported NOTAMs for that airfield.



MET'MAP, your aeronautical weather chart ! - Copyright ORBIFLY December 2007 - Disclaimer

ORBIFLY MET'MAP TEAM :

Programming & Development : Alexandra Zaïnal
Concept & Development : Baudouin d'Aumeries
Co-Development & Prog : Marc-Olivier Méhu
Technical & hardware support : Manuel Goepfert

Contact : metmap@orbifly.com




SOURCES & CREDITS :

   NOAA       Earth
Advisory